MDT,Max TemperatureF,Mean TemperatureF,Min TemperatureF,Max Dew PointF,MeanDew PointF,Min DewpointF,Max Humidity, Mean Humidity, Min Humidity, Max Sea Level PressureIn, Mean Sea Level PressureIn, Min Sea Level PressureIn, Max VisibilityMiles, Mean VisibilityMiles, Min VisibilityMiles, Max Wind SpeedMPH, Mean Wind SpeedMPH, Max Gust SpeedMPH,PrecipitationIn, CloudCover, Events, WindDirDegrees
2012-8-1,82,68,54,52,44,38,67,44,21,30.02,29.96,29.89,10,10,9,21,8,25,T,0,,26
2012-8-2,83,68,53,53,40,28,86,51,15,29.93,29.88,29.81,10,10,10,22,9,29,0.05,1,Rain,3
2012-8-3,64,56,47,52,46,38,100,70,39,30.13,30.05,29.94,10,10,6,21,11,30,0.17,7,Rain,303
2012-8-4,76,60,44,46,43,39,92,61,29,30.17,30.13,30.09,10,10,10,12,5,25,0.00,0,,307
2012-8-5,90,69,47,47,40,33,71,43,15,30.06,30.01,29.95,10,10,10,12,5,28,0.00,0,,111
2012-8-6,92,73,53,50,41,38,64,40,15,30.03,30.00,29.98,10,10,10,17,6,23,T,1,Rain,163
2012-8-7,89,73,56,51,40,31,67,40,12,30.07,30.03,30.00,10,10,10,21,7,29,T,1,Rain,312
2012-8-8,95,74,52,48,41,37,66,40,14,30.09,30.02,29.93,10,10,10,20,6,38,T,0,,128
2012-8-9,88,73,57,49,46,43,60,41,22,30.07,30.02,29.98,10,10,9,13,6,15,0.00,0,,147
2012-8-10,85,72,58,54,47,44,62,44,26,30.07,29.90,29.80,10,10,9,35,9,45,0.01,1,Rain,183
2012-8-11,81,69,57,54,50,45,86,59,32,30.07,29.96,29.81,10,10,8,22,9,28,0.12,4,Rain,282
2012-8-12,81,68,55,53,50,48,77,57,36,30.13,30.07,30.01,10,10,10,18,11,26,0.00,1,,105
2012-8-13,84,70,56,51,47,42,72,49,26,30.01,29.93,29.88,10,10,10,17,8,23,0.00,0,,73
2012-8-14,89,70,51,52,40,32,77,46,14,29.91,29.77,29.65,10,10,10,33,11,45,0.00,0,,263
2012-8-15,59,50,40,54,48,38,93,74,54,30.30,30.15,29.91,10,9,2,20,9,29,0.04,8,Rain,316
2012-8-16,75,58,41,41,38,34,89,57,25,30.29,30.15,30.04,10,10,10,9,5,12,0.00,1,,91
2012-8-17,81,61,41,42,37,31,89,53,17,30.12,30.08,30.06,10,10,10,14,5,18,0.00,0,,120
2012-8-18,82,63,43,39,32,23,65,39,12,30.15,30.10,30.04,10,10,10,10,5,15,0.00,0,,123
2012-8-19,88,68,47,39,34,29,61,37,13,30.03,29.96,29.88,10,10,10,12,6,16,0.00,0,,112
2012-8-20,88,69,50,39,36,31,59,37,14,29.94,29.91,29.88,10,10,10,13,5,16,0.00,0,,114
2012-8-21,91,71,51,54,38,33,78,46,14,29.92,29.86,29.73,10,10,10,31,6,41,0.02,1,Rain,165
2012-8-22,82,68,54,54,43,31,80,50,19,29.88,29.85,29.81,10,10,10,16,6,29,T,1,Rain,350
2012-8-23,87,67,47,41,35,27,66,39,12,29.88,29.78,29.70,10,10,10,15,4,23,0.00,0,,149
2012-8-24,77,60,42,35,28,13,70,40,10,30.02,29.82,29.71,10,10,7,32,11,46,0.00,0,,294
2012-8-25,73,55,36,34,28,20,85,50,14,30.03,29.98,29.93,10,10,10,15,7,21,0.00,0,,83
2012-8-26,81,62,43,33,30,29,58,37,16,30.07,30.00,29.94,10,10,10,20,11,24,0.00,0,,102
2012-8-27,92,74,56,48,39,32,52,34,15,29.98,29.94,29.89,10,10,10,18,6,28,0.02,0,,101
2012-8-28,96,74,51,48,37,26,77,43,9,30.00,29.87,29.67,10,10,10,21,8,28,0.00,0,,164
2012-8-29,81,65,48,35,31,27,41,28,15,29.96,29.79,29.66,10,10,9,16,7,24,0.00,0,,289
2012-8-30,82,63,43,38,32,26,62,38,14,30.08,29.96,29.87,10,10,8,14,5,20,0.00,0,,144
2012-8-31,90,69,48,40,35,28,56,34,11,29.98,29.84,29.74,10,10,10,22,6,28,0.00,0,,122